createdAt,value
2017-09-07T00:00:31.618Z,12.09
2017-09-07T00:01:42.173Z,12.13
2017-09-07T00:02:52.882Z,12.04
2017-09-07T00:04:03.327Z,12.07
2017-09-07T00:05:13.780Z,12.08
2017-09-07T00:06:23.909Z,12.08
2017-09-07T00:07:34.424Z,11.99
2017-09-07T00:08:44.852Z,12.04
2017-09-07T00:09:55.322Z,12.04
2017-09-07T00:11:05.812Z,11.95
2017-09-07T00:12:15.983Z,11.98
2017-09-07T00:13:26.474Z,12.05
2017-09-07T00:14:37.168Z,12.07
2017-09-07T00:15:47.241Z,12.05
2017-09-07T00:16:57.701Z,12.05
2017-09-07T00:18:08.169Z,12.07
2017-09-07T00:19:18.617Z,12.04
2017-09-07T00:20:29.031Z,12.04
2017-09-07T00:21:39.154Z,12.04
2017-09-07T00:22:49.598Z,12.08
2017-09-07T00:23:59.722Z,12.04
2017-09-07T00:25:10.166Z,12.07
2017-09-07T00:26:20.889Z,12.09
2017-09-07T00:27:31.361Z,12.04
2017-09-07T00:28:41.819Z,12.11
2017-09-07T00:29:52.378Z,12.02
2017-09-07T00:31:02.849Z,12.08
2017-09-07T00:32:13.549Z,12.04
2017-09-07T00:33:24.046Z,12.04
2017-09-07T00:34:34.710Z,12.08
2017-09-07T00:35:45.203Z,12.08
2017-09-07T00:36:55.756Z,12.07
2017-09-07T00:38:06.455Z,11.99
2017-09-07T00:39:17.009Z,11.98
2017-09-07T00:40:27.477Z,11.98
2017-09-07T00:41:37.938Z,11.98
2017-09-07T00:42:48.437Z,11.99
2017-09-07T00:43:58.889Z,11.98
2017-09-07T00:45:09.065Z,11.97
2017-09-07T00:46:19.438Z,11.95
2017-09-07T00:47:29.897Z,11.91
2017-09-07T00:48:40.427Z,11.95
2017-09-07T00:49:51.122Z,11.83
2017-09-07T00:51:01.336Z,11.84
2017-09-07T00:52:11.527Z,11.79
2017-09-07T00:53:22.283Z,11.89
2017-09-07T00:54:32.753Z,11.84
2017-09-07T00:55:43.162Z,11.84
2017-09-07T00:56:53.613Z,11.76
2017-09-07T00:58:04.292Z,11.8
2017-09-07T00:59:14.769Z,11.77
2017-09-07T01:00:25.233Z,11.79
2017-09-07T01:01:35.964Z,11.76
2017-09-07T01:02:46.665Z,11.71
2017-09-07T01:03:57.124Z,11.71
2017-09-07T01:05:07.561Z,11.71
2017-09-07T01:06:18.014Z,11.77
2017-09-07T01:07:28.689Z,11.62
2017-09-07T01:08:39.218Z,11.65
2017-09-07T01:09:49.697Z,11.71
2017-09-07T01:11:00.109Z,11.66
2017-09-07T01:12:10.551Z,11.71
2017-09-07T01:13:21.280Z,11.71
2017-09-07T01:14:31.706Z,11.62
2017-09-07T01:15:42.115Z,11.66
2017-09-07T01:16:52.625Z,11.57
2017-09-07T01:18:03.081Z,11.59
2017-09-07T01:19:13.781Z,11.48
2017-09-07T01:20:24.468Z,11.48
2017-09-07T01:21:34.947Z,11.45
2017-09-07T01:22:45.724Z,11.46
2017-09-07T01:23:56.181Z,11.42
2017-09-07T01:25:06.974Z,11.42
2017-09-07T01:26:17.394Z,11.4
2017-09-07T01:27:27.855Z,11.34
2017-09-07T01:28:38.337Z,11.27
2017-09-07T01:29:48.767Z,11.45
2017-09-07T01:30:59.443Z,11.42
2017-09-07T01:32:09.902Z,11.48
2017-09-07T01:33:21.062Z,11.39
2017-09-07T01:34:31.609Z,11.43
2017-09-07T01:35:42.010Z,11.39
2017-09-07T01:36:52.696Z,11.39
2017-09-07T01:38:03.181Z,11.38
2017-09-07T01:39:13.642Z,11.42
2017-09-07T01:40:24.066Z,11.38
2017-09-07T01:41:34.646Z,11.38
2017-09-07T01:42:45.320Z,11.43
2017-09-07T01:43:55.793Z,11.43
2017-09-07T01:45:06.249Z,11.46
2017-09-07T01:46:16.561Z,11.45
2017-09-07T01:47:26.994Z,11.39
2017-09-07T01:48:37.353Z,11.42
2017-09-07T01:49:47.779Z,11.42
2017-09-07T01:50:58.341Z,11.39
2017-09-07T01:52:08.784Z,11.35
2017-09-07T01:53:19.272Z,11.23
2017-09-07T01:54:29.987Z,11.23
2017-09-07T01:55:40.408Z,11.13
2017-09-07T01:56:50.940Z,11.17
2017-09-07T01:58:01.392Z,11.21
2017-09-07T01:59:11.812Z,11.15
2017-09-07T02:00:22.159Z,11.21
2017-09-07T02:01:32.592Z,11.15
2017-09-07T02:02:42.723Z,11.25
2017-09-07T02:03:53.218Z,11.27
2017-09-07T02:05:03.642Z,11.25
2017-09-07T02:06:14.491Z,11.31
2017-09-07T02:07:24.961Z,11.28
2017-09-07T02:08:35.415Z,11.28
2017-09-07T02:09:45.830Z,11.31
2017-09-07T02:10:56.257Z,11.38
2017-09-07T02:12:07.028Z,11.33
2017-09-07T02:13:17.484Z,11.24
2017-09-07T02:14:28.212Z,11.24
2017-09-07T02:15:38.680Z,11.23
2017-09-07T02:16:49.107Z,11.16
2017-09-07T02:17:59.813Z,11.16
2017-09-07T02:19:10.236Z,11.27
2017-09-07T02:20:20.695Z,11.24
2017-09-07T02:21:30.817Z,11.3
2017-09-07T02:22:41.269Z,11.16
2017-09-07T02:23:51.945Z,11.15
2017-09-07T02:25:02.387Z,11.15
2017-09-07T02:26:12.866Z,11.27
2017-09-07T02:27:23.303Z,11.31
2017-09-07T02:28:33.746Z,11.3
2017-09-07T02:29:44.430Z,11.27
2017-09-07T02:30:54.881Z,11.28
2017-09-07T02:32:05.323Z,11.33
2017-09-07T02:33:16.001Z,11.3
2017-09-07T02:34:26.449Z,11.28
2017-09-07T02:35:37.444Z,11.2
2017-09-07T02:36:47.854Z,11.16
2017-09-07T02:37:58.300Z,11.21
2017-09-07T02:39:08.420Z,11.25
2017-09-07T02:40:18.921Z,11.24
2017-09-07T02:41:29.628Z,11.15
2017-09-07T02:42:40.074Z,11.23
2017-09-07T02:43:50.535Z,11.23
2017-09-07T02:45:00.993Z,11.17
2017-09-07T02:46:11.182Z,11.17
2017-09-07T02:47:21.964Z,11.25
2017-09-07T02:48:32.079Z,11.3
2017-09-07T02:49:42.587Z,11.33
2017-09-07T02:50:53.152Z,11.38
2017-09-07T02:52:03.596Z,11.42
2017-09-07T02:53:14.305Z,11.45
2017-09-07T02:54:24.738Z,11.48
2017-09-07T02:55:35.160Z,11.46
2017-09-07T02:56:45.746Z,11.39
2017-09-07T02:57:56.166Z,11.4
2017-09-07T02:59:06.828Z,11.43
2017-09-07T03:00:17.334Z,11.39
2017-09-07T03:01:27.758Z,11.39
2017-09-07T03:02:38.185Z,11.39
2017-09-07T03:03:48.748Z,11.4
2017-09-07T03:04:59.119Z,11.42
2017-09-07T03:06:09.536Z,11.4
2017-09-07T03:07:19.683Z,11.35
2017-09-07T03:08:30.102Z,11.48
2017-09-07T03:09:40.540Z,11.39
2017-09-07T03:10:51.333Z,11.38
2017-09-07T03:12:01.775Z,11.46
2017-09-07T03:13:12.202Z,11.4
2017-09-07T03:14:22.655Z,11.43
2017-09-07T03:15:33.154Z,11.4
2017-09-07T03:16:43.869Z,11.39
2017-09-07T03:17:54.317Z,11.48
2017-09-07T03:19:04.744Z,11.38
2017-09-07T03:20:14.914Z,11.43
2017-09-07T03:21:25.184Z,11.39
2017-09-07T03:22:35.556Z,11.48
2017-09-07T03:23:45.983Z,11.34
2017-09-07T03:24:56.440Z,11.38
2017-09-07T03:26:06.909Z,11.43
2017-09-07T03:27:17.400Z,11.35
2017-09-07T03:28:28.120Z,11.38
2017-09-07T03:29:38.538Z,11.39
2017-09-07T03:30:48.964Z,11.39
2017-09-07T03:31:59.219Z,11.5
2017-09-07T03:33:09.651Z,11.39
2017-09-07T03:34:20.345Z,11.4
2017-09-07T03:35:30.810Z,11.33
2017-09-07T03:36:41.277Z,11.42
2017-09-07T03:37:51.718Z,11.46
2017-09-07T03:39:02.238Z,11.48
2017-09-07T03:40:13.007Z,11.39
2017-09-07T03:41:23.140Z,11.48
2017-09-07T03:42:33.571Z,11.38
2017-09-07T03:43:44.028Z,11.48
2017-09-07T03:44:54.446Z,11.5
2017-09-07T03:46:05.278Z,11.45
2017-09-07T03:47:15.696Z,11.48
2017-09-07T03:48:26.132Z,11.45
2017-09-07T03:49:36.585Z,11.59
2017-09-07T03:50:47.144Z,11.58
2017-09-07T03:51:57.879Z,11.49
2017-09-07T03:53:08.351Z,11.48
2017-09-07T03:54:18.823Z,11.64
2017-09-07T03:55:28.967Z,11.53
2017-09-07T03:56:39.399Z,11.61
2017-09-07T03:57:50.086Z,11.62
2017-09-07T03:59:00.581Z,11.58
2017-09-07T04:00:11.024Z,11.66
2017-09-07T04:01:21.490Z,11.61
2017-09-07T04:02:31.457Z,11.68
2017-09-07T04:03:41.685Z,11.71
2017-09-07T04:04:52.121Z,11.68
2017-09-07T04:06:02.641Z,11.79
2017-09-07T04:07:12.761Z,11.74
2017-09-07T04:08:23.182Z,11.76
2017-09-07T04:09:33.844Z,11.72
2017-09-07T04:10:44.268Z,11.74
2017-09-07T04:11:54.755Z,11.71
2017-09-07T04:13:05.234Z,11.76
2017-09-07T04:14:15.675Z,11.74
2017-09-07T04:15:26.425Z,11.79
2017-09-07T04:16:36.914Z,11.79
2017-09-07T04:17:47.319Z,11.74
2017-09-07T04:18:57.763Z,11.72
2017-09-07T04:20:08.218Z,11.76
2017-09-07T04:21:18.913Z,11.69
2017-09-07T04:22:29.517Z,11.69
2017-09-07T04:23:39.948Z,11.68
2017-09-07T04:24:50.607Z,11.66
2017-09-07T04:26:01.122Z,11.64
2017-09-07T04:27:11.828Z,11.65
2017-09-07T04:28:22.263Z,11.74
2017-09-07T04:29:32.698Z,11.69
2017-09-07T04:30:43.210Z,11.74
2017-09-07T04:31:53.649Z,11.69
2017-09-07T04:33:04.333Z,11.76
2017-09-07T04:34:14.798Z,11.72
2017-09-07T04:35:25.351Z,11.79
2017-09-07T04:36:35.780Z,11.74
2017-09-07T04:37:46.224Z,11.77
2017-09-07T04:38:57.145Z,11.8
2017-09-07T04:40:07.361Z,11.8
2017-09-07T04:41:17.821Z,11.69
2017-09-07T04:42:28.229Z,11.72
2017-09-07T04:43:38.657Z,11.76
2017-09-07T04:44:49.361Z,11.71
2017-09-07T04:45:59.851Z,11.74
2017-09-07T04:47:10.291Z,11.8
2017-09-07T04:48:20.725Z,11.79
2017-09-07T04:49:31.153Z,11.79
2017-09-07T04:50:41.824Z,11.77
2017-09-07T04:51:52.257Z,11.87
2017-09-07T04:53:02.913Z,11.82
2017-09-07T04:54:13.387Z,11.8
2017-09-07T04:55:23.872Z,11.94
2017-09-07T04:56:34.730Z,11.94
2017-09-07T04:57:45.187Z,11.89
2017-09-07T04:58:55.845Z,11.97
2017-09-07T05:00:06.287Z,11.94
2017-09-07T05:01:16.797Z,12.05
2017-09-07T05:02:27.485Z,12.11
2017-09-07T05:03:37.981Z,12.08
2017-09-07T05:04:48.133Z,12.2
2017-09-07T05:05:58.582Z,12.22
2017-09-07T05:07:09.299Z,12.24
2017-09-07T05:08:20.203Z,12.27
2017-09-07T05:09:30.739Z,12.31
2017-09-07T05:10:41.403Z,12.39
2017-09-07T05:11:51.833Z,12.41
2017-09-07T05:13:02.370Z,12.31
2017-09-07T05:14:13.090Z,12.34
2017-09-07T05:15:23.593Z,12.39
2017-09-07T05:16:34.037Z,12.38
2017-09-07T05:17:44.509Z,12.37
2017-09-07T05:18:54.947Z,12.38
2017-09-07T05:20:05.193Z,12.41
2017-09-07T05:21:15.628Z,12.35
2017-09-07T05:22:26.061Z,12.44
2017-09-07T05:23:36.482Z,12.47
2017-09-07T05:24:46.595Z,12.6
2017-09-07T05:25:57.278Z,12.63
2017-09-07T05:27:07.700Z,12.55
2017-09-07T05:28:18.180Z,12.52
2017-09-07T05:29:28.596Z,12.56
2017-09-07T05:30:39.149Z,12.55
2017-09-07T05:31:49.830Z,12.55
2017-09-07T05:33:00.286Z,12.59
2017-09-07T05:34:10.806Z,12.56
2017-09-07T05:35:21.327Z,12.57
2017-09-07T05:36:31.780Z,12.52
2017-09-07T05:37:42.453Z,12.59
2017-09-07T05:38:52.972Z,12.55
2017-09-07T05:40:03.417Z,12.55
2017-09-07T05:41:13.968Z,12.57
2017-09-07T05:42:24.427Z,12.7
2017-09-07T05:43:35.054Z,12.7
2017-09-07T05:44:45.534Z,12.74
2017-09-07T05:45:55.772Z,12.78
2017-09-07T05:47:06.211Z,12.85
2017-09-07T05:48:16.696Z,12.77
2017-09-07T05:49:27.393Z,12.84
2017-09-07T05:50:37.835Z,12.89
2017-09-07T05:51:48.290Z,12.89
2017-09-07T05:52:58.777Z,12.85
2017-09-07T05:54:09.224Z,12.89
2017-09-07T05:55:19.698Z,12.85
2017-09-07T05:56:30.137Z,12.89
2017-09-07T05:57:40.625Z,12.96
2017-09-07T05:58:51.062Z,12.92
2017-09-07T06:00:01.499Z,12.9
2017-09-07T06:01:11.932Z,12.8
2017-09-07T06:02:22.443Z,12.81
2017-09-07T06:03:32.874Z,12.84
2017-09-07T06:04:43.403Z,12.88
2017-09-07T06:05:53.855Z,12.82
2017-09-07T06:07:04.337Z,12.95
2017-09-07T06:08:14.763Z,12.85
2017-09-07T06:09:25.209Z,12.95
2017-09-07T06:10:35.646Z,12.93
2017-09-07T06:11:46.142Z,12.97
2017-09-07T06:12:56.588Z,12.96
2017-09-07T06:14:07.015Z,13.04
2017-09-07T06:15:17.264Z,12.9
2017-09-07T06:16:27.752Z,13.01
2017-09-07T06:17:38.284Z,13.04
2017-09-07T06:18:48.709Z,13.13
2017-09-07T06:19:59.237Z,13.08
2017-09-07T06:21:09.464Z,13.27
2017-09-07T06:22:19.897Z,13.27
2017-09-07T06:23:30.334Z,13.36
2017-09-07T06:24:40.768Z,13.4
2017-09-07T06:25:51.203Z,13.51
2017-09-07T06:27:01.693Z,13.58
2017-09-07T06:28:11.812Z,13.48
2017-09-07T06:29:22.371Z,13.69
2017-09-07T06:30:32.723Z,13.66
2017-09-07T06:31:43.152Z,13.63
2017-09-07T06:32:53.575Z,13.63
2017-09-07T06:34:04.032Z,13.71
2017-09-07T06:35:14.552Z,13.67
2017-09-07T06:36:24.980Z,13.69
2017-09-07T06:37:35.417Z,13.74
2017-09-07T06:38:45.843Z,13.71
2017-09-07T06:39:56.382Z,13.63
2017-09-07T06:41:06.857Z,13.7
2017-09-07T06:42:17.390Z,13.7
2017-09-07T06:43:27.879Z,13.69
2017-09-07T06:44:38.368Z,13.55
2017-09-07T06:45:48.531Z,13.63
2017-09-07T06:46:58.952Z,13.61
2017-09-07T06:48:09.105Z,13.63
2017-09-07T06:49:19.140Z,13.59
2017-09-07T06:50:29.597Z,13.63
2017-09-07T06:51:40.075Z,13.74
2017-09-07T06:52:50.197Z,13.64
2017-09-07T06:54:00.311Z,13.61
2017-09-07T06:55:10.959Z,13.59
2017-09-07T06:56:21.414Z,13.58
2017-09-07T06:57:31.890Z,13.67
2017-09-07T06:58:42.335Z,13.66
2017-09-07T06:59:52.768Z,13.69
2017-09-07T07:01:02.899Z,13.67
2017-09-07T07:02:13.350Z,13.74
2017-09-07T07:03:23.765Z,13.79
2017-09-07T07:04:34.216Z,13.84
2017-09-07T07:05:44.644Z,13.82
2017-09-07T07:06:55.118Z,13.92
2017-09-07T07:08:05.562Z,13.96
2017-09-07T07:09:16.038Z,14.02
2017-09-07T07:10:26.477Z,14
2017-09-07T07:11:36.922Z,14.09
2017-09-07T07:12:47.389Z,14.1
2017-09-07T07:13:58.035Z,14.19
2017-09-07T07:15:08.472Z,14.1
2017-09-07T07:16:18.902Z,14.13
2017-09-07T07:17:29.086Z,14.24
2017-09-07T07:18:39.541Z,14.26
2017-09-07T07:19:49.668Z,14.24
2017-09-07T07:21:00.080Z,14.24
2017-09-07T07:22:11.531Z,14.37
2017-09-07T07:23:22.061Z,14.34
2017-09-07T07:24:32.191Z,14.36
2017-09-07T07:25:42.857Z,14.43
2017-09-07T07:26:53.275Z,14.4
2017-09-07T07:28:03.998Z,14.59
2017-09-07T07:29:14.480Z,14.56
2017-09-07T07:30:25.139Z,14.52
2017-09-07T07:31:35.638Z,14.63
2017-09-07T07:32:46.071Z,14.65
2017-09-07T07:33:57.483Z,14.65
2017-09-07T07:35:08.021Z,14.69
2017-09-07T07:36:18.102Z,14.81
2017-09-07T07:37:28.617Z,14.87
2017-09-07T07:38:39.062Z,14.99
2017-09-07T07:39:49.188Z,15.11
2017-09-07T07:40:59.607Z,15.13
2017-09-07T07:42:10.067Z,15.23
2017-09-07T07:43:20.495Z,15.27
2017-09-07T07:44:30.953Z,15.35
2017-09-07T07:45:41.412Z,15.43
2017-09-07T07:46:51.869Z,15.53
2017-09-07T07:48:01.868Z,15.58
2017-09-07T07:49:11.878Z,15.7
2017-09-07T07:50:22.397Z,15.75
2017-09-07T07:51:32.824Z,15.84
2017-09-07T07:52:43.324Z,15.91
2017-09-07T07:53:53.776Z,16.11
2017-09-07T07:55:04.225Z,16.09
2017-09-07T07:56:14.669Z,15.96
2017-09-07T07:57:25.123Z,15.92
2017-09-07T07:58:35.786Z,15.98
2017-09-07T07:59:45.980Z,16.35
2017-09-07T08:00:55.661Z,16.39
2017-09-07T08:02:06.093Z,16.61
2017-09-07T08:03:16.251Z,16.71
2017-09-07T08:04:26.694Z,16.69
2017-09-07T08:05:37.666Z,16.69
2017-09-07T08:06:48.099Z,16.53
2017-09-07T08:07:58.544Z,16.53
2017-09-07T08:09:09.019Z,16.65
2017-09-07T08:10:19.576Z,16.59
2017-09-07T08:11:30.046Z,16.47
2017-09-07T08:12:40.564Z,16.68
2017-09-07T08:13:50.984Z,16.57
2017-09-07T08:15:01.451Z,16.44
2017-09-07T08:16:11.998Z,16.51
2017-09-07T08:17:22.430Z,16.44
2017-09-07T08:18:32.586Z,16.31
2017-09-07T08:19:43.879Z,16.31
2017-09-07T08:20:54.339Z,16.29
2017-09-07T08:22:05.010Z,16.17
2017-09-07T08:23:15.463Z,16.74
2017-09-07T08:24:25.944Z,17.46
2017-09-07T08:25:36.420Z,17.73
2017-09-07T08:26:47.070Z,18.02
2017-09-07T08:27:57.509Z,18.26
2017-09-07T08:29:08.011Z,19.05
2017-09-07T08:30:18.489Z,19.13
2017-09-07T08:31:28.948Z,19.13
2017-09-07T08:32:39.107Z,19.02
2017-09-07T08:33:49.626Z,19.23
2017-09-07T08:35:00.110Z,19.16
2017-09-07T08:36:10.541Z,19.4
2017-09-07T08:37:21.010Z,19.27
2017-09-07T08:38:31.460Z,18.97
2017-09-07T08:39:42.055Z,18.72
2017-09-07T08:40:52.575Z,18.55
2017-09-07T08:42:02.836Z,18.47
2017-09-07T08:43:12.991Z,18.95
2017-09-07T08:44:23.453Z,19.31
2017-09-07T08:45:33.508Z,19.92
2017-09-07T08:46:43.672Z,20.45
2017-09-07T08:47:54.001Z,21.01
2017-09-07T08:49:04.636Z,21.6
2017-09-07T08:50:14.775Z,22.21
2017-09-07T08:51:24.898Z,22.64
2017-09-07T08:52:35.409Z,22.63
2017-09-07T08:53:45.953Z,22.18
2017-09-07T08:54:56.415Z,21.72
2017-09-07T08:56:06.842Z,21.19
2017-09-07T08:57:16.647Z,20.85
2017-09-07T08:58:27.092Z,20.45
2017-09-07T08:59:37.530Z,20.03
2017-09-07T09:00:47.963Z,19.74
2017-09-07T09:01:59.593Z,19.35
2017-09-07T09:03:10.130Z,19.1
2017-09-07T09:04:20.563Z,18.73
2017-09-07T09:05:30.998Z,18.25
2017-09-07T09:06:41.532Z,18.02
2017-09-07T09:07:51.965Z,17.82
2017-09-07T09:09:02.082Z,17.62
2017-09-07T09:10:12.510Z,17.43
2017-09-07T09:11:22.943Z,17.27
2017-09-07T09:12:32.752Z,17.19
2017-09-07T09:13:43.257Z,17.09
2017-09-07T09:14:53.381Z,17.2
2017-09-07T09:16:03.883Z,17.62
2017-09-07T09:17:14.323Z,17.92
2017-09-07T09:18:24.782Z,17.94
2017-09-07T09:19:35.277Z,17.83
2017-09-07T09:20:45.862Z,17.98
2017-09-07T09:21:56.300Z,18.04
2017-09-07T09:23:06.746Z,18.09
2017-09-07T09:24:17.225Z,18.37
2017-09-07T09:25:27.732Z,18.44
2017-09-07T09:26:37.884Z,18.6
2017-09-07T09:27:48.373Z,18.57
2017-09-07T09:28:58.506Z,18.4
2017-09-07T09:30:08.317Z,18.47
2017-09-07T09:31:18.753Z,18.38
2017-09-07T09:32:29.245Z,18.65
2017-09-07T09:33:39.719Z,19
2017-09-07T09:34:50.230Z,18.98
2017-09-07T09:36:00.748Z,19.08
2017-09-07T09:37:11.215Z,19.16
2017-09-07T09:38:21.648Z,19.24
2017-09-07T09:39:32.217Z,19.33
2017-09-07T09:40:42.424Z,19.55
2017-09-07T09:41:52.997Z,19.67
2017-09-07T09:43:03.431Z,19.56
2017-09-07T09:44:14.989Z,19.65
2017-09-07T09:45:24.993Z,19.53
2017-09-07T09:46:35.461Z,19.63
2017-09-07T09:47:45.979Z,19.85
2017-09-07T09:48:56.460Z,19.85
2017-09-07T09:50:06.500Z,19.93
2017-09-07T09:51:16.939Z,20.03
2017-09-07T09:52:27.104Z,20.07
2017-09-07T09:53:37.563Z,20.2
2017-09-07T09:54:48.003Z,20.23
2017-09-07T09:55:58.717Z,20.34
2017-09-07T09:57:09.150Z,20.34
2017-09-07T09:58:19.343Z,20.45
2017-09-07T09:59:29.838Z,20.63
2017-09-07T10:00:39.982Z,20.71
2017-09-07T10:01:50.437Z,20.81
2017-09-07T10:03:00.573Z,21.03
2017-09-07T10:04:11.093Z,21.1
2017-09-07T10:05:21.081Z,21.08
2017-09-07T10:06:31.547Z,21.18
2017-09-07T10:07:42.088Z,21.19
2017-09-07T10:08:52.538Z,21.4
2017-09-07T10:10:02.978Z,21.57
2017-09-07T10:11:12.697Z,21.53
2017-09-07T10:12:23.136Z,21.66
2017-09-07T10:13:33.606Z,21.64
2017-09-07T10:14:44.039Z,21.81
2017-09-07T10:15:54.507Z,21.78
2017-09-07T10:17:04.495Z,21.79
2017-09-07T10:18:14.793Z,21.75
2017-09-07T10:19:25.265Z,21.78
2017-09-07T10:20:35.705Z,21.98
2017-09-07T10:21:45.930Z,22.24
2017-09-07T10:22:56.486Z,22.42
2017-09-07T10:24:06.930Z,22.57
2017-09-07T10:25:16.722Z,22.61
2017-09-07T10:26:27.260Z,23.06
2017-09-07T10:27:37.742Z,23.17
2017-09-07T10:28:48.226Z,23.38
2017-09-07T10:29:58.460Z,23.24
2017-09-07T10:31:08.900Z,23.51
2017-09-07T10:32:19.453Z,23.39
2017-09-07T10:33:29.892Z,23.39
2017-09-07T10:34:40.466Z,23.35
2017-09-07T10:35:50.590Z,23.23
2017-09-07T10:37:01.280Z,23.16
2017-09-07T10:38:11.750Z,23.01
2017-09-07T10:39:22.209Z,23.01
2017-09-07T10:40:32.660Z,22.64
2017-09-07T10:41:43.300Z,22.16
2017-09-07T10:42:53.749Z,21.72
2017-09-07T10:44:04.237Z,21.6
2017-09-07T10:45:14.730Z,21.25
2017-09-07T10:46:26.288Z,21.31
2017-09-07T10:47:36.768Z,21.4
2017-09-07T10:48:46.937Z,21.3
2017-09-07T10:49:57.405Z,21.19
2017-09-07T10:51:07.868Z,21.38
2017-09-07T10:52:18.361Z,21.65
2017-09-07T10:53:28.823Z,21.71
2017-09-07T10:54:39.413Z,21.57
2017-09-07T10:55:49.558Z,21.75
2017-09-07T10:57:00.245Z,21.75
2017-09-07T10:58:10.493Z,21.88
2017-09-07T10:59:20.939Z,22.15
2017-09-07T11:00:31.396Z,22.42
2017-09-07T11:01:41.226Z,22.64
2017-09-07T11:02:51.773Z,22.79
2017-09-07T11:04:02.215Z,22.83
2017-09-07T11:05:12.719Z,22.87
2017-09-07T11:06:23.159Z,22.65
2017-09-07T11:07:33.603Z,22.33
2017-09-07T11:08:44.055Z,22.12
2017-09-07T11:09:54.663Z,21.64
2017-09-07T11:11:05.106Z,21.18
2017-09-07T11:12:15.614Z,20.88
2017-09-07T11:13:26.106Z,20.61
2017-09-07T11:14:35.940Z,20.42
2017-09-07T11:15:46.392Z,20.2
2017-09-07T11:16:57.088Z,20.12
2017-09-07T11:18:07.516Z,20.05
2017-09-07T11:19:17.574Z,20.07
2017-09-07T11:20:28.187Z,20.14
2017-09-07T11:21:38.935Z,20
2017-09-07T11:22:49.382Z,19.98
2017-09-07T11:23:59.897Z,19.83
2017-09-07T11:25:10.343Z,19.92
2017-09-07T11:26:20.821Z,20.16
2017-09-07T11:27:31.520Z,20.11
2017-09-07T11:28:41.968Z,20.53
2017-09-07T11:29:52.171Z,20.54
2017-09-07T11:31:02.215Z,20.54
2017-09-07T11:32:12.749Z,20.51
2017-09-07T11:33:23.188Z,20.49
2017-09-07T11:34:33.861Z,20.28
2017-09-07T11:35:44.368Z,20.07
2017-09-07T11:36:54.840Z,19.93
2017-09-07T11:38:05.307Z,19.74
2017-09-07T11:39:15.775Z,19.53
2017-09-07T11:40:25.990Z,19.49
2017-09-07T11:41:36.487Z,19.3
2017-09-07T11:42:46.966Z,19.33
2017-09-07T11:43:57.630Z,19.23
2017-09-07T11:45:08.065Z,19.18
2017-09-07T11:46:18.617Z,19.16
2017-09-07T11:47:29.328Z,19.31
2017-09-07T11:48:39.616Z,19.65
2017-09-07T11:49:50.202Z,20.05
2017-09-07T11:51:00.786Z,20.46
2017-09-07T11:52:11.214Z,20.82
2017-09-07T11:53:21.688Z,21.13
2017-09-07T11:54:32.182Z,21.58
2017-09-07T11:55:42.725Z,21.68
2017-09-07T11:56:53.172Z,21.79
2017-09-07T11:58:03.623Z,21.84
2017-09-07T11:59:14.194Z,21.84
2017-09-07T12:00:24.408Z,21.79
2017-09-07T12:01:34.881Z,21.68
2017-09-07T12:02:45.321Z,21.41
2017-09-07T12:03:55.460Z,21.3
2017-09-07T12:05:06.015Z,21.12
2017-09-07T12:06:16.512Z,20.85
2017-09-07T12:07:26.715Z,20.58
2017-09-07T12:08:36.699Z,20.28
2017-09-07T12:09:47.243Z,20.16
2017-09-07T12:10:56.922Z,19.95
2017-09-07T12:12:06.825Z,19.6
2017-09-07T12:13:16.942Z,19.43
2017-09-07T12:14:27.390Z,19.12
2017-09-07T12:15:38.012Z,19.12
2017-09-07T12:16:48.452Z,19
2017-09-07T12:17:58.683Z,18.86
2017-09-07T12:19:09.146Z,18.63
2017-09-07T12:20:19.581Z,18.56
2017-09-07T12:21:29.727Z,18.55
2017-09-07T12:22:40.319Z,18.34
2017-09-07T12:23:50.798Z,18.37
2017-09-07T12:25:01.244Z,18.28
2017-09-07T12:26:11.696Z,18.23
2017-09-07T12:27:22.177Z,18.16
2017-09-07T12:28:32.620Z,18.26
2017-09-07T12:29:43.066Z,18.25
2017-09-07T12:30:53.520Z,18.31
2017-09-07T12:32:03.980Z,18.4
2017-09-07T12:33:14.436Z,18.35
2017-09-07T12:34:24.909Z,18.57
2017-09-07T12:35:35.347Z,18.56
2017-09-07T12:36:45.779Z,18.65
2017-09-07T12:37:55.926Z,18.73
2017-09-07T12:39:05.918Z,18.69
2017-09-07T12:40:16.400Z,18.84
2017-09-07T12:41:26.851Z,18.97
2017-09-07T12:42:37.423Z,19.06
2017-09-07T12:43:47.573Z,19.18
2017-09-07T12:44:58.056Z,19.5
2017-09-07T12:46:08.274Z,19.83
2017-09-07T12:47:18.840Z,20.04
2017-09-07T12:48:29.001Z,20.34
2017-09-07T12:49:39.450Z,20.48
2017-09-07T12:50:50.030Z,20.66
2017-09-07T12:52:00.512Z,20.78
2017-09-07T12:53:10.970Z,20.78
2017-09-07T12:54:21.431Z,20.73
2017-09-07T12:55:31.983Z,20.54
2017-09-07T12:56:42.661Z,20.48
2017-09-07T12:57:53.144Z,20.46
2017-09-07T12:59:03.609Z,20.36
2017-09-07T13:00:14.076Z,20.35
2017-09-07T13:01:24.572Z,20.28
2017-09-07T13:02:35.107Z,20.19
2017-09-07T13:03:45.559Z,20.19
2017-09-07T13:04:56.147Z,20.14
2017-09-07T13:06:06.615Z,20.16
2017-09-07T13:07:17.056Z,20.21
2017-09-07T13:08:27.192Z,20.3
2017-09-07T13:09:37.677Z,20.31
2017-09-07T13:10:48.176Z,20.38
2017-09-07T13:11:58.630Z,20.39
2017-09-07T13:13:08.649Z,20.36
2017-09-07T13:14:19.098Z,20.42
2017-09-07T13:15:29.778Z,20.46
2017-09-07T13:16:39.910Z,20.43
2017-09-07T13:17:50.429Z,20.42
2017-09-07T13:19:01.015Z,20.54
2017-09-07T13:20:11.478Z,20.46
2017-09-07T13:21:22.003Z,20.45
2017-09-07T13:22:32.520Z,20.42
2017-09-07T13:23:43.583Z,20.45
2017-09-07T13:24:54.081Z,20.54
2017-09-07T13:26:04.555Z,20.48
2017-09-07T13:27:15.080Z,20.42
2017-09-07T13:28:25.222Z,20.43
2017-09-07T13:29:35.687Z,20.31
2017-09-07T13:30:46.165Z,20.31
2017-09-07T13:31:56.612Z,20.34
2017-09-07T13:33:07.157Z,20.26
2017-09-07T13:34:17.604Z,20.23
2017-09-07T13:35:27.460Z,20.3
2017-09-07T13:36:37.905Z,20.34
2017-09-07T13:37:48.406Z,20.36
2017-09-07T13:38:58.881Z,20.45
2017-09-07T13:40:09.391Z,20.46
2017-09-07T13:41:19.843Z,20.35
2017-09-07T13:42:30.319Z,20.27
2017-09-07T13:43:40.790Z,20.27
2017-09-07T13:44:51.278Z,20.26
2017-09-07T13:46:01.742Z,20.2
2017-09-07T13:47:12.256Z,20.23
2017-09-07T13:48:22.773Z,20.28
2017-09-07T13:49:33.223Z,20.21
2017-09-07T13:50:43.663Z,20.34
2017-09-07T13:51:53.940Z,20.34
2017-09-07T13:53:04.315Z,20.27
2017-09-07T13:54:15.023Z,20.17
2017-09-07T13:55:25.176Z,20.16
2017-09-07T13:56:35.639Z,20.04
2017-09-07T13:57:45.637Z,19.93
2017-09-07T13:58:55.771Z,19.83
2017-09-07T14:00:06.249Z,19.82
2017-09-07T14:01:16.408Z,19.76
2017-09-07T14:02:26.537Z,19.68
2017-09-07T14:03:37.058Z,19.7
2017-09-07T14:04:47.217Z,19.71
2017-09-07T14:05:57.899Z,19.71
2017-09-07T14:07:08.355Z,19.78
2017-09-07T14:08:18.817Z,19.82
2017-09-07T14:09:28.979Z,19.89
2017-09-07T14:10:39.435Z,19.9
2017-09-07T14:11:49.925Z,19.92
2017-09-07T14:13:00.408Z,19.92
2017-09-07T14:14:10.897Z,19.97
2017-09-07T14:15:20.964Z,19.98
2017-09-07T14:16:32.382Z,20.03
2017-09-07T14:17:43.134Z,19.98
2017-09-07T14:18:53.583Z,20.05
2017-09-07T14:20:04.040Z,19.93
2017-09-07T14:21:14.762Z,19.86
2017-09-07T14:22:25.440Z,19.65
2017-09-07T14:23:36.000Z,19.67
2017-09-07T14:24:46.463Z,19.53
2017-09-07T14:25:56.976Z,19.39
2017-09-07T14:27:07.448Z,19.42
2017-09-07T14:28:17.612Z,19.35
2017-09-07T14:29:28.157Z,19.28
2017-09-07T14:30:38.628Z,19.23
2017-09-07T14:31:49.098Z,19.13
2017-09-07T14:32:59.242Z,19.19
2017-09-07T14:34:09.707Z,19.13
2017-09-07T14:35:19.871Z,19.13
2017-09-07T14:36:30.377Z,19.18
2017-09-07T14:37:40.518Z,19.18
2017-09-07T14:38:50.979Z,19.25
2017-09-07T14:40:01.449Z,19.27
2017-09-07T14:41:11.893Z,19.4
2017-09-07T14:42:22.358Z,19.45
2017-09-07T14:43:32.801Z,19.45
2017-09-07T14:44:43.266Z,19.46
2017-09-07T14:45:53.722Z,19.34
2017-09-07T14:47:04.153Z,19.35
2017-09-07T14:48:14.666Z,19.25
2017-09-07T14:49:25.269Z,19.24
2017-09-07T14:50:35.705Z,19.3
2017-09-07T14:51:46.488Z,19.25
2017-09-07T14:52:56.954Z,19.13
2017-09-07T14:54:07.473Z,19.08
2017-09-07T14:55:17.936Z,18.97
2017-09-07T14:56:28.411Z,18.97
2017-09-07T14:57:38.878Z,18.97
2017-09-07T14:58:49.341Z,18.93
2017-09-07T14:59:59.826Z,18.87
2017-09-07T15:01:10.281Z,18.82
2017-09-07T15:02:20.782Z,18.71
2017-09-07T15:03:31.267Z,18.6
2017-09-07T15:04:41.715Z,18.57
2017-09-07T15:05:52.164Z,18.62
2017-09-07T15:07:02.301Z,18.65
2017-09-07T15:08:12.746Z,18.65
2017-09-07T15:09:22.755Z,18.56